• Join FlightAware (Why Join?)
  • Login
  • US Flag 
12:38PM EDT


 

Airport Tracker/Info


-or-


 

Live Flight TrackerFlight Track Log ✈ SWA2785 ✈ 23-May-2012 ✈ KLAS - KRNO

Flight Track Log - Related Links

Times and Time Zones

All times are in EDT time to prevent confusion due to time zone crossing. See the SWA2785 flight status page for this flight to view local times or setup timezone preferences in your user account.

Time Position Orientation Groundspeed Altitude Reporting Facility
EDT Latitude Longitude Course Direction KTS MPH feet Rate Location/Type
12:59PM 36.9218 -117.0151 118° Southeast  Level FlightAware Approximate
01:00PM 36.1017 -115.1550 255° West 140 161 3,300  Level Los Angeles Center
01:05PM 36.0125 -115.5617 269° West 298 343 19,900 2,880 Climbing Los Angeles Center
01:06PM 36.0108 -115.6847 303° West 334 384 21,500 2,220 Climbing Los Angeles Center
01:07PM 36.0614 -115.7794 303° West 350 403 24,400 2,700 Climbing Los Angeles Center
01:08PM 36.1242 -115.9003 302° West 377 434 27,000 2,400 Climbing Los Angeles Center
01:09PM 36.1806 -116.0133 303° West 388 447 29,200 2,580 Climbing Los Angeles Center
01:10PM 36.2392 -116.1239 300° West 388 447 32,200 2,400 Climbing Los Angeles Center
01:11PM 36.2953 -116.2425 308° West 393 452 34,000 900 Climbing Los Angeles Center
01:12PM 36.3494 -116.3275 302° West 374 430 34,000  Level Los Angeles Center
01:13PM 36.4056 -116.4386 304° West 374 430 34,000  Level Los Angeles Center
01:14PM 36.4719 -116.5603 302° West 385 443 34,000  Level Los Angeles Center
01:15PM 36.5153 -116.6483 305° West 390 449 34,000  Level Los Angeles Center
01:16PM 36.5939 -116.7858 330° Northwest 395 455 34,000  Level Los Angeles Center
01:17PM 36.6894 -116.8542 333° Northwest 383 441 34,000  Level Los Angeles Center
01:18PM 36.7808 -116.9119 325° Northwest 383 441 34,000  Level Los Angeles Center
01:19PM 36.8722 -116.9908 333° Northwest 383 441 34,000  Level Los Angeles Center
01:20PM 36.9394 -117.0342 327° Northwest 385 443 34,000  Level Oakland Center
01:21PM 37.0208 -117.1003 329° Northwest 368 423 34,000  Level Oakland Center
01:22PM 37.1108 -117.1686 328° Northwest 368 423 34,000  Level Oakland Center
01:23PM 37.2006 -117.2394 329° Northwest 368 423 34,000  Level Oakland Center
01:24PM 37.2883 -117.3058 329° Northwest 375 432 34,000 -180 Level Oakland Center
01:25PM 37.3781 -117.3744 309° West 375 432 33,700 -420 Descending Oakland Center
01:26PM 37.4436 -117.4761 308° West 375 432 33,200 -540 Descending Oakland Center
01:27PM 37.5072 -117.5778 308° West 368 423 32,700 -480 Descending Oakland Center
01:28PM 37.5728 -117.6822 307° West 378 435 32,300 -600 Descending Oakland Center
01:29PM 37.6361 -117.7869 308° West 378 435 31,600 -900 Descending Oakland Center
01:30PM 37.7017 -117.8917 308° West 378 435 30,600 -1,080 Descending Oakland Center
01:31PM 37.7625 -117.9917 308° West 378 435 29,500 -840 Descending Oakland Center
01:32PM 37.8256 -118.0942 307° West 378 435 29,000 -300 Descending Oakland Center
01:33PM 37.8864 -118.1972 308° West 378 435 29,000  Level Oakland Center
01:34PM 37.9408 -118.2872 309° West 371 427 29,000  Level Oakland Center
01:35PM 38.0033 -118.3853 306° West 366 421 29,000  Level Oakland Center
01:36PM 38.0619 -118.4861 308° West 361 415 29,000  Level Oakland Center
01:37PM 38.1222 -118.5842 307° West 354 407 29,000  Level Oakland Center
01:38PM 38.1828 -118.6881 305° West 349 402 29,000 -360 Level Oakland Center
01:39PM 38.2389 -118.7894 307° West 349 402 28,300 -900 Descending Oakland Center
01:40PM 38.2972 -118.8881 307° West 349 402 27,300 -1,020 Descending Oakland Center
01:41PM 38.3550 -118.9844 311° West 349 402 26,300 -1,020 Descending Oakland Center
01:42PM 38.4169 -119.0756 323° Northwest 349 402 25,300 -1,020 Descending Oakland Center
01:43PM 38.4911 -119.1481 321° Northwest 339 390 24,300 -1,020 Descending Oakland Center
01:44PM 38.5611 -119.2206 322° Northwest 332 382 23,300 -960 Descending Oakland Center
01:45PM 38.6161 -119.2750 322° Northwest 327 376 22,500 -900 Descending Oakland Center
01:46PM 38.6922 -119.3506 320° Northwest 322 371 21,500 -1,500 Descending Oakland Center
01:47PM 38.7558 -119.4183 323° Northwest 306 352 19,500 -2,100 Descending Oakland Center
01:48PM 38.8214 -119.4808 322° Northwest 301 346 17,400 -2,400 Descending Oakland Center
01:49PM 38.8803 -119.5408 325° Northwest 290 334 14,800 -2,700 Descending Oakland Center
01:50PM 38.9478 -119.6011 332° Northwest 285 328 12,000 -2,220 Descending Oakland Center
01:51PM 39.0236 -119.6531 332° Northwest 291 335 10,400 -1,140 Descending Oakland Center
01:52PM 39.0908 -119.7000 330° Northwest 291 335 9,800 -420 Descending Oakland Center
01:53PM 39.1517 -119.7444 345° North 270 311 9,600 -300 Descending Oakland Center
01:54PM 39.2167 -119.7675 359° North 252 290 9,300 -420 Descending Oakland Center
01:55PM 39.2811 -119.7689 North 236 272 8,800 -780 Descending Oakland Center
01:57PM 39.4000 -119.7667 360° North 171 197 7,100 -1,140 Descending Northern Cal TRACON
01:58PM 39.4500 -119.7667 360° North 152 175 5,500 -1,620 Descending Northern Cal TRACON
02:05PM 39.4833 -119.7667 356° North  Level FlightAware Approximate
02:06PM 39.5833 -119.7758 356° North  Level Estimated